SANE/SDE METAR and TAF weather

Enter ICAO airport designator
Station Type Date Time Source
SANE METAR 2021/05/12 12:00 UTC NOAA

SANE 121200Z 32005KT 5000 BR 05/03 Q1024


Station Type Date Time Source
SANE Decoded METAR 2021/05/12 12:00 UTC NOAA

Santiago Del Estero Aero., Argentina (SANE) 27-46S 064-18W 199M
May 12, 2021 - 08:00 AM EDT / 2021.05.12 1200 UTC
Wind: from the NW (320 degrees) at 6 MPH (5 KT):0
Visibility: 3 mile(s):0
Weather: mist
Temperature: 41 F (5 C)
Dew Point: 37 F (3 C)
Relative Humidity: 86%
Pressure (altimeter): 30.24 in. Hg (1024 hPa)
ob: SANE 121200Z 32005KT 5000 BR 05/03 Q1024
cycle: 12

Station Type Date Time Source
SANE TAF 2021/05/08 12:15 UTC NOAA

TAF TAF SANE 081100Z 0812/0912 09005KT 5000 BR NSC TX23/0818Z TN08/0810Z
BECMG 0813/0815 05015KT CAVOK
BECMG 0901/0903 09005KT

Example: see airport list